sensor_id;sensor_type;location;lat;lon;timestamp;pressure;altitude;pressure_sealevel;temperature;humidity
65716;BME280;63484;52.054;8.518;2023-03-14T00:00:57;98077.00;;;11.93;74.52
65716;BME280;63484;52.054;8.518;2023-03-14T00:06:02;98068.47;;;11.91;74.44
65716;BME280;63484;52.054;8.518;2023-03-14T00:11:05;98079.16;;;11.82;74.74
65716;BME280;63484;52.054;8.518;2023-03-14T00:16:09;98109.94;;;11.81;75.04
65716;BME280;63484;52.054;8.518;2023-03-14T00:21:13;98100.25;;;11.98;74.12
65716;BME280;63484;52.054;8.518;2023-03-14T00:26:16;98088.38;;;11.86;74.73
65716;BME280;63484;52.054;8.518;2023-03-14T00:31:17;98095.09;;;11.96;74.81
65716;BME280;63484;52.054;8.518;2023-03-14T00:36:20;98098.56;;;11.81;75.08
65716;BME280;63484;52.054;8.518;2023-03-14T00:41:23;98099.91;;;11.69;75.30
65716;BME280;63484;52.054;8.518;2023-03-14T00:46:24;98081.78;;;11.74;75.59
65716;BME280;63484;52.054;8.518;2023-03-14T00:51:27;98076.31;;;11.59;75.99
65716;BME280;63484;52.054;8.518;2023-03-14T00:56:30;98065.81;;;11.67;75.38
65716;BME280;63484;52.054;8.518;2023-03-14T01:01:31;98078.16;;;11.59;75.82
65716;BME280;63484;52.054;8.518;2023-03-14T01:06:34;98083.25;;;11.52;76.22
65716;BME280;63484;52.054;8.518;2023-03-14T01:11:36;98081.47;;;11.69;75.38
65716;BME280;63484;52.054;8.518;2023-03-14T01:16:37;98079.03;;;11.83;74.40
65716;BME280;63484;52.054;8.518;2023-03-14T01:21:40;98076.56;;;11.90;74.17
65716;BME280;63484;52.054;8.518;2023-03-14T01:26:41;98064.34;;;11.89;73.66
65716;BME280;63484;52.054;8.518;2023-03-14T01:31:43;98056.13;;;11.92;73.65
65716;BME280;63484;52.054;8.518;2023-03-14T01:36:46;98024.03;;;11.96;73.31
65716;BME280;63484;52.054;8.518;2023-03-14T01:41:47;98033.41;;;11.99;73.03
65716;BME280;63484;52.054;8.518;2023-03-14T01:46:50;98052.19;;;11.96;73.18
65716;BME280;63484;52.054;8.518;2023-03-14T01:51:56;98026.81;;;11.95;73.08
65716;BME280;63484;52.054;8.518;2023-03-14T01:57:03;98046.06;;;12.03;72.36
65716;BME280;63484;52.054;8.518;2023-03-14T02:02:07;98043.59;;;12.10;72.05
65716;BME280;63484;52.054;8.518;2023-03-14T02:07:15;98037.03;;;12.06;72.04
65716;BME280;63484;52.054;8.518;2023-03-14T02:12:28;98020.09;;;11.92;72.45
65716;BME280;63484;52.054;8.518;2023-03-14T02:18:09;98022.19;;;12.05;73.42
65716;BME280;63484;52.054;8.518;2023-03-14T02:23:28;98012.16;;;12.08;71.91
65716;BME280;63484;52.054;8.518;2023-03-14T02:28:34;98056.78;;;12.02;76.85
65716;BME280;63484;52.054;8.518;2023-03-14T02:40:12;98082.88;;;10.14;88.45
65716;BME280;63484;52.054;8.518;2023-03-14T02:45:39;98074.56;;;9.83;90.48
65716;BME280;63484;52.054;8.518;2023-03-14T02:50:42;98061.94;;;9.79;91.53
65716;BME280;63484;52.054;8.518;2023-03-14T02:55:45;98052.31;;;9.70;90.86
65716;BME280;63484;52.054;8.518;2023-03-14T03:00:49;98053.25;;;9.61;90.05
65716;BME280;63484;52.054;8.518;2023-03-14T03:05:53;98039.16;;;9.62;90.13
65716;BME280;63484;52.054;8.518;2023-03-14T03:10:56;98033.69;;;9.55;90.93
65716;BME280;63484;52.054;8.518;2023-03-14T03:15:59;98027.16;;;9.42;91.66
65716;BME280;63484;52.054;8.518;2023-03-14T03:21:03;98033.63;;;9.47;90.74
65716;BME280;63484;52.054;8.518;2023-03-14T03:26:05;98032.47;;;9.50;91.99
65716;BME280;63484;52.054;8.518;2023-03-14T03:31:09;98021.88;;;9.51;91.46
65716;BME280;63484;52.054;8.518;2023-03-14T03:36:12;98019.53;;;9.31;91.96
65716;BME280;63484;52.054;8.518;2023-03-14T03:41:14;98010.56;;;9.33;92.24
65716;BME280;63484;52.054;8.518;2023-03-14T03:46:17;98006.94;;;9.52;90.89
65716;BME280;63484;52.054;8.518;2023-03-14T03:51:18;98023.06;;;9.39;89.83
65716;BME280;63484;52.054;8.518;2023-03-14T03:56:21;98011.16;;;9.45;89.19
65716;BME280;63484;52.054;8.518;2023-03-14T04:01:24;98016.03;;;9.40;89.19
65716;BME280;63484;52.054;8.518;2023-03-14T04:06:29;98009.81;;;9.41;89.08
65716;BME280;63484;52.054;8.518;2023-03-14T04:11:33;98004.41;;;9.42;89.65
65716;BME280;63484;52.054;8.518;2023-03-14T04:16:40;98014.16;;;9.32;90.39
65716;BME280;63484;52.054;8.518;2023-03-14T04:21:48;98003.13;;;9.29;91.26
65716;BME280;63484;52.054;8.518;2023-03-14T04:26:50;98002.56;;;9.35;91.31
65716;BME280;63484;52.054;8.518;2023-03-14T04:31:52;98004.56;;;9.41;91.22
65716;BME280;63484;52.054;8.518;2023-03-14T04:36:54;97993.41;;;9.39;92.20
65716;BME280;63484;52.054;8.518;2023-03-14T04:42:03;97983.59;;;9.41;91.55
65716;BME280;63484;52.054;8.518;2023-03-14T04:47:06;97974.81;;;9.32;91.81
65716;BME280;63484;52.054;8.518;2023-03-14T04:52:08;97988.84;;;9.41;91.73
65716;BME280;63484;52.054;8.518;2023-03-14T04:57:11;97979.50;;;9.38;90.56
65716;BME280;63484;52.054;8.518;2023-03-14T05:02:15;97957.44;;;9.49;89.74
65716;BME280;63484;52.054;8.518;2023-03-14T05:07:30;97961.69;;;9.50;89.76
65716;BME280;63484;52.054;8.518;2023-03-14T05:12:45;97967.22;;;9.47;90.09
65716;BME280;63484;52.054;8.518;2023-03-14T05:18:07;97977.34;;;9.59;90.07
65716;BME280;63484;52.054;8.518;2023-03-14T05:23:24;97971.78;;;9.62;88.89
65716;BME280;63484;52.054;8.518;2023-03-14T05:28:37;97978.19;;;9.68;88.63
65716;BME280;63484;52.054;8.518;2023-03-14T05:33:48;97968.28;;;9.79;87.42
65716;BME280;63484;52.054;8.518;2023-03-14T05:39:06;97959.09;;;9.75;88.42
65716;BME280;63484;52.054;8.518;2023-03-14T05:44:22;97958.56;;;9.72;88.29
65716;BME280;63484;52.054;8.518;2023-03-14T05:49:54;97950.06;;;9.78;87.67
65716;BME280;63484;52.054;8.518;2023-03-14T05:55:17;97956.19;;;9.87;86.96
65716;BME280;63484;52.054;8.518;2023-03-14T06:00:36;97948.63;;;9.83;86.11
65716;BME280;63484;52.054;8.518;2023-03-14T06:05:52;97953.41;;;9.88;86.86
65716;BME280;63484;52.054;8.518;2023-03-14T06:10:57;97943.47;;;9.66;89.08
65716;BME280;63484;52.054;8.518;2023-03-14T06:16:04;97938.91;;;9.76;88.33
65716;BME280;63484;52.054;8.518;2023-03-14T06:21:07;97961.03;;;9.73;87.38
65716;BME280;63484;52.054;8.518;2023-03-14T06:26:09;97959.25;;;9.74;89.55
65716;BME280;63484;52.054;8.518;2023-03-14T06:31:12;97967.09;;;9.48;90.98
65716;BME280;63484;52.054;8.518;2023-03-14T06:36:24;97955.28;;;9.44;90.07
65716;BME280;63484;52.054;8.518;2023-03-14T06:41:26;97979.34;;;9.40;90.95
65716;BME280;63484;52.054;8.518;2023-03-14T06:46:28;97963.22;;;9.35;90.66
65716;BME280;63484;52.054;8.518;2023-03-14T06:51:30;97971.91;;;9.35;91.59
65716;BME280;63484;52.054;8.518;2023-03-14T06:56:32;97981.81;;;9.24;92.61
65716;BME280;63484;52.054;8.518;2023-03-14T07:01:34;97979.84;;;9.26;92.30
65716;BME280;63484;52.054;8.518;2023-03-14T07:06:42;97970.78;;;9.38;92.20
65716;BME280;63484;52.054;8.518;2023-03-14T07:11:44;97990.25;;;9.53;91.66
65716;BME280;63484;52.054;8.518;2023-03-14T07:16:46;97982.22;;;9.54;92.45
65716;BME280;63484;52.054;8.518;2023-03-14T07:21:49;97992.13;;;9.43;93.35
65716;BME280;63484;52.054;8.518;2023-03-14T07:26:55;97980.94;;;9.58;94.45
65716;BME280;63484;52.054;8.518;2023-03-14T07:31:57;97983.88;;;9.55;93.52
65716;BME280;63484;52.054;8.518;2023-03-14T07:37:00;97986.56;;;9.46;96.28
65716;BME280;63484;52.054;8.518;2023-03-14T07:42:01;97977.84;;;9.63;94.96
65716;BME280;63484;52.054;8.518;2023-03-14T07:47:32;97982.19;;;9.72;96.09
65716;BME280;63484;52.054;8.518;2023-03-14T07:52:35;97990.47;;;9.85;95.20
65716;BME280;63484;52.054;8.518;2023-03-14T07:57:36;97992.00;;;9.70;97.03
65716;BME280;63484;52.054;8.518;2023-03-14T08:02:37;97988.53;;;9.87;96.83
65716;BME280;63484;52.054;8.518;2023-03-14T08:07:40;97982.06;;;9.81;96.83
65716;BME280;63484;52.054;8.518;2023-03-14T08:12:42;97990.66;;;9.92;96.50
65716;BME280;63484;52.054;8.518;2023-03-14T08:17:43;97999.09;;;9.77;97.99
65716;BME280;63484;52.054;8.518;2023-03-14T08:22:46;97989.38;;;9.96;97.15
65716;BME280;63484;52.054;8.518;2023-03-14T08:27:48;97991.34;;;9.94;97.82
65716;BME280;63484;52.054;8.518;2023-03-14T08:32:49;98001.56;;;10.05;97.31
65716;BME280;63484;52.054;8.518;2023-03-14T08:37:52;97986.91;;;10.20;95.96
65716;BME280;63484;52.054;8.518;2023-03-14T08:42:53;97992.44;;;10.42;95.37
65716;BME280;63484;52.054;8.518;2023-03-14T08:47:55;97987.22;;;10.50;95.50
65716;BME280;63484;52.054;8.518;2023-03-14T08:52:57;97988.00;;;10.92;93.49
65716;BME280;63484;52.054;8.518;2023-03-14T08:58:00;97988.75;;;10.77;94.43
65716;BME280;63484;52.054;8.518;2023-03-14T09:03:01;97993.28;;;11.08;91.89
65716;BME280;63484;52.054;8.518;2023-03-14T09:08:04;97993.25;;;10.92;92.83
65716;BME280;63484;52.054;8.518;2023-03-14T09:13:05;97997.34;;;11.03;92.81
65716;BME280;63484;52.054;8.518;2023-03-14T09:18:07;97998.19;;;11.03;92.78
65716;BME280;63484;52.054;8.518;2023-03-14T09:23:10;97990.97;;;11.13;92.03
65716;BME280;63484;52.054;8.518;2023-03-14T09:28:12;97992.28;;;11.58;91.29
65716;BME280;63484;52.054;8.518;2023-03-14T09:33:13;97994.63;;;11.85;88.39
65716;BME280;63484;52.054;8.518;2023-03-14T09:38:16;97993.09;;;11.98;87.83
65716;BME280;63484;52.054;8.518;2023-03-14T09:43:17;97989.72;;;12.67;83.36
65716;BME280;63484;52.054;8.518;2023-03-14T09:48:21;97989.44;;;13.60;82.24
65716;BME280;63484;52.054;8.518;2023-03-14T09:53:27;97996.91;;;13.34;79.83
65716;BME280;63484;52.054;8.518;2023-03-14T09:58:31;97997.81;;;12.96;81.36
65716;BME280;63484;52.054;8.518;2023-03-14T10:03:34;97999.22;;;12.76;84.74
65716;BME280;63484;52.054;8.518;2023-03-14T10:08:38;98002.03;;;12.36;86.69
65716;BME280;63484;52.054;8.518;2023-03-14T10:13:49;97996.09;;;12.42;87.35
65716;BME280;63484;52.054;8.518;2023-03-14T10:18:50;98009.88;;;12.52;86.05
65716;BME280;63484;52.054;8.518;2023-03-14T10:23:53;98044.53;;;12.33;85.49
65716;BME280;63484;52.054;8.518;2023-03-14T10:29:02;98048.00;;;12.17;87.05
65716;BME280;63484;52.054;8.518;2023-03-14T10:34:04;98108.09;;;11.74;88.64
65716;BME280;63484;52.054;8.518;2023-03-14T10:39:24;98127.19;;;10.43;86.45
65716;BME280;63484;52.054;8.518;2023-03-14T10:44:26;98153.59;;;9.80;86.40
65716;BME280;63484;52.054;8.518;2023-03-14T10:49:29;98167.06;;;9.68;89.03
65716;BME280;63484;52.054;8.518;2023-03-14T10:54:32;98199.34;;;9.33;87.55
65716;BME280;63484;52.054;8.518;2023-03-14T10:59:36;98227.97;;;8.71;89.39
65716;BME280;63484;52.054;8.518;2023-03-14T11:04:51;98259.88;;;8.38;92.16
65716;BME280;63484;52.054;8.518;2023-03-14T11:10:01;98309.28;;;7.54;89.44
65716;BME280;63484;52.054;8.518;2023-03-14T11:15:05;98335.41;;;7.24;90.54
65716;BME280;63484;52.054;8.518;2023-03-14T11:20:27;98367.09;;;6.89;91.61
65716;BME280;63484;52.054;8.518;2023-03-14T11:25:37;98410.34;;;6.50;89.33
65716;BME280;63484;52.054;8.518;2023-03-14T11:30:51;98449.34;;;5.87;87.13
65716;BME280;63484;52.054;8.518;2023-03-14T11:35:58;98480.69;;;5.52;89.63
65716;BME280;63484;52.054;8.518;2023-03-14T11:41:10;98523.19;;;5.53;89.82
65716;BME280;63484;52.054;8.518;2023-03-14T11:46:17;98515.97;;;5.56;91.38
65716;BME280;63484;52.054;8.518;2023-03-14T11:51:24;98536.81;;;5.56;90.73
65716;BME280;63484;52.054;8.518;2023-03-14T11:56:33;98552.63;;;5.77;90.35
65716;BME280;63484;52.054;8.518;2023-03-14T12:01:52;98584.41;;;5.82;86.66
65716;BME280;63484;52.054;8.518;2023-03-14T12:06:56;98609.44;;;5.85;86.77
65716;BME280;63484;52.054;8.518;2023-03-14T12:12:01;98644.75;;;5.89;86.98
65716;BME280;63484;52.054;8.518;2023-03-14T12:17:05;98659.53;;;6.12;85.88
65716;BME280;63484;52.054;8.518;2023-03-14T12:22:23;98681.38;;;6.22;82.95
65716;BME280;63484;52.054;8.518;2023-03-14T12:27:48;98701.41;;;6.32;80.42
65716;BME280;63484;52.054;8.518;2023-03-14T12:33:19;98703.72;;;6.70;79.67
65716;BME280;63484;52.054;8.518;2023-03-14T12:38:26;98718.22;;;7.07;80.05
65716;BME280;63484;52.054;8.518;2023-03-14T12:43:33;98733.53;;;7.34;77.48
65716;BME280;63484;52.054;8.518;2023-03-14T12:48:37;98719.94;;;7.51;77.83
65716;BME280;63484;52.054;8.518;2023-03-14T12:53:53;98731.41;;;7.17;77.72
65716;BME280;63484;52.054;8.518;2023-03-14T12:59:27;98738.41;;;7.27;76.63
65716;BME280;63484;52.054;8.518;2023-03-14T13:04:32;98747.16;;;7.59;77.24
65716;BME280;63484;52.054;8.518;2023-03-14T13:09:53;98775.19;;;7.68;78.31
65716;BME280;63484;52.054;8.518;2023-03-14T13:14:58;98822.38;;;7.12;80.49
65716;BME280;63484;52.054;8.518;2023-03-14T13:20:03;98850.47;;;6.04;85.59
65716;BME280;63484;52.054;8.518;2023-03-14T13:25:10;98883.53;;;5.42;88.75
65716;BME280;63484;52.054;8.518;2023-03-14T13:30:17;98868.31;;;5.49;86.89
65716;BME280;63484;52.054;8.518;2023-03-14T13:35:22;98882.34;;;5.46;87.59
65716;BME280;63484;52.054;8.518;2023-03-14T13:40:26;98895.28;;;5.86;89.30
65716;BME280;63484;52.054;8.518;2023-03-14T13:45:31;98909.06;;;6.24;86.33
65716;BME280;63484;52.054;8.518;2023-03-14T13:50:32;98913.28;;;6.61;86.21
65716;BME280;63484;52.054;8.518;2023-03-14T13:55:34;98921.78;;;6.75;84.15
65716;BME280;63484;52.054;8.518;2023-03-14T14:00:37;98944.03;;;6.92;83.83
65716;BME280;63484;52.054;8.518;2023-03-14T14:05:38;98965.63;;;6.94;83.70
65716;BME280;63484;52.054;8.518;2023-03-14T14:10:41;98985.97;;;7.36;80.58
65716;BME280;63484;52.054;8.518;2023-03-14T14:15:45;98998.97;;;7.49;73.66
65716;BME280;63484;52.054;8.518;2023-03-14T14:20:49;99002.97;;;7.31;71.44
65716;BME280;63484;52.054;8.518;2023-03-14T14:25:51;99024.91;;;7.28;71.21
65716;BME280;63484;52.054;8.518;2023-03-14T14:31:18;99047.84;;;7.01;65.87
65716;BME280;63484;52.054;8.518;2023-03-14T14:36:23;99053.28;;;6.98;67.39
65716;BME280;63484;52.054;8.518;2023-03-14T14:41:32;99067.22;;;6.86;67.53
65716;BME280;63484;52.054;8.518;2023-03-14T14:46:37;99077.03;;;6.95;65.84
65716;BME280;63484;52.054;8.518;2023-03-14T14:51:42;99090.59;;;7.47;66.12
65716;BME280;63484;52.054;8.518;2023-03-14T14:56:49;99103.97;;;7.66;58.95
65716;BME280;63484;52.054;8.518;2023-03-14T15:01:56;99129.34;;;7.53;59.23
65716;BME280;63484;52.054;8.518;2023-03-14T15:06:58;99155.28;;;7.33;60.56
65716;BME280;63484;52.054;8.518;2023-03-14T15:12:00;99162.06;;;7.35;57.55
65716;BME280;63484;52.054;8.518;2023-03-14T15:17:03;99185.19;;;7.52;56.91
65716;BME280;63484;52.054;8.518;2023-03-14T15:22:05;99189.44;;;7.42;55.25
65716;BME280;63484;52.054;8.518;2023-03-14T15:27:13;99195.75;;;7.27;58.67
65716;BME280;63484;52.054;8.518;2023-03-14T15:32:16;99209.47;;;7.54;56.99
65716;BME280;63484;52.054;8.518;2023-03-14T15:37:18;99214.38;;;7.82;57.67
65716;BME280;63484;52.054;8.518;2023-03-14T15:42:19;99230.19;;;7.81;54.49
65716;BME280;63484;52.054;8.518;2023-03-14T15:47:22;99239.97;;;7.66;54.98
65716;BME280;63484;52.054;8.518;2023-03-14T15:52:23;99251.06;;;7.57;57.56
65716;BME280;63484;52.054;8.518;2023-03-14T15:57:25;99264.28;;;7.43;55.77
65716;BME280;63484;52.054;8.518;2023-03-14T16:02:28;99272.34;;;7.40;58.95
65716;BME280;63484;52.054;8.518;2023-03-14T16:07:30;99271.63;;;7.38;57.64
65716;BME280;63484;52.054;8.518;2023-03-14T16:12:31;99279.81;;;7.21;58.49
65716;BME280;63484;52.054;8.518;2023-03-14T16:17:34;99285.78;;;6.98;56.03
65716;BME280;63484;52.054;8.518;2023-03-14T16:22:37;99302.31;;;6.98;56.05
65716;BME280;63484;52.054;8.518;2023-03-14T16:27:38;99311.69;;;6.88;57.44
65716;BME280;63484;52.054;8.518;2023-03-14T16:32:45;99326.31;;;6.91;57.30
65716;BME280;63484;52.054;8.518;2023-03-14T16:37:46;99345.03;;;6.85;57.36
65716;BME280;63484;52.054;8.518;2023-03-14T16:42:47;99363.81;;;6.77;57.46
65716;BME280;63484;52.054;8.518;2023-03-14T16:47:50;99386.13;;;6.56;59.21
65716;BME280;63484;52.054;8.518;2023-03-14T16:52:52;99406.50;;;6.37;56.66
65716;BME280;63484;52.054;8.518;2023-03-14T16:57:54;99424.34;;;6.17;58.92
65716;BME280;63484;52.054;8.518;2023-03-14T17:02:57;99439.75;;;6.07;56.64
65716;BME280;63484;52.054;8.518;2023-03-14T17:07:58;99452.03;;;6.05;54.99
65716;BME280;63484;52.054;8.518;2023-03-14T17:13:00;99471.88;;;5.94;54.62
65716;BME280;63484;52.054;8.518;2023-03-14T17:18:03;99483.03;;;5.82;55.91
65716;BME280;63484;52.054;8.518;2023-03-14T17:23:05;99488.19;;;5.83;55.08
65716;BME280;63484;52.054;8.518;2023-03-14T17:28:06;99494.94;;;5.72;58.18
65716;BME280;63484;52.054;8.518;2023-03-14T17:33:09;99510.22;;;5.78;55.10
65716;BME280;63484;52.054;8.518;2023-03-14T17:38:10;99517.56;;;5.57;56.23
65716;BME280;63484;52.054;8.518;2023-03-14T17:43:12;99547.75;;;5.31;57.52
65716;BME280;63484;52.054;8.518;2023-03-14T17:48:15;99563.06;;;5.22;59.55
65716;BME280;63484;52.054;8.518;2023-03-14T17:53:16;99570.72;;;5.09;59.76
65716;BME280;63484;52.054;8.518;2023-03-14T17:58:18;99595.03;;;4.94;58.10
65716;BME280;63484;52.054;8.518;2023-03-14T18:03:21;99604.44;;;4.81;57.98
65716;BME280;63484;52.054;8.518;2023-03-14T18:08:22;99609.03;;;4.76;58.62
65716;BME280;63484;52.054;8.518;2023-03-14T18:13:24;99627.38;;;4.58;60.71
65716;BME280;63484;52.054;8.518;2023-03-14T18:18:27;99634.41;;;4.40;60.32
65716;BME280;63484;52.054;8.518;2023-03-14T18:23:29;99643.06;;;4.41;62.38
65716;BME280;63484;52.054;8.518;2023-03-14T18:28:30;99650.91;;;4.56;59.39
65716;BME280;63484;52.054;8.518;2023-03-14T18:33:33;99666.66;;;4.53;59.44
65716;BME280;63484;52.054;8.518;2023-03-14T18:38:37;99672.66;;;4.38;59.99
65716;BME280;63484;52.054;8.518;2023-03-14T18:43:42;99683.22;;;4.35;61.89
65716;BME280;63484;52.054;8.518;2023-03-14T18:48:44;99690.44;;;4.30;61.64
65716;BME280;63484;52.054;8.518;2023-03-14T18:53:46;99707.13;;;4.26;62.60
65716;BME280;63484;52.054;8.518;2023-03-14T18:58:47;99711.75;;;4.37;59.37
65716;BME280;63484;52.054;8.518;2023-03-14T19:03:50;99719.81;;;4.32;59.55
65716;BME280;63484;52.054;8.518;2023-03-14T19:08:51;99727.84;;;4.28;59.42
65716;BME280;63484;52.054;8.518;2023-03-14T19:13:53;99740.94;;;4.26;59.38
65716;BME280;63484;52.054;8.518;2023-03-14T19:18:57;99754.47;;;4.15;60.76
65716;BME280;63484;52.054;8.518;2023-03-14T19:23:59;99762.97;;;4.02;63.35
65716;BME280;63484;52.054;8.518;2023-03-14T19:29:01;99762.41;;;4.12;61.42
65716;BME280;63484;52.054;8.518;2023-03-14T19:34:03;99779.75;;;4.12;62.72
65716;BME280;63484;52.054;8.518;2023-03-14T19:39:05;99801.34;;;4.14;62.24
65716;BME280;63484;52.054;8.518;2023-03-14T19:44:07;99802.44;;;4.10;62.74
65716;BME280;63484;52.054;8.518;2023-03-14T19:49:09;99810.81;;;3.98;64.24
65716;BME280;63484;52.054;8.518;2023-03-14T19:54:11;99818.06;;;3.91;64.17
65716;BME280;63484;52.054;8.518;2023-03-14T19:59:13;99819.81;;;3.91;64.77
65716;BME280;63484;52.054;8.518;2023-03-14T20:04:16;99827.97;;;3.83;65.48
65716;BME280;63484;52.054;8.518;2023-03-14T20:09:18;99831.63;;;3.79;65.98
65716;BME280;63484;52.054;8.518;2023-03-14T20:14:19;99847.44;;;3.75;66.35
65716;BME280;63484;52.054;8.518;2023-03-14T20:19:22;99859.16;;;3.65;67.37
65716;BME280;63484;52.054;8.518;2023-03-14T20:24:26;99860.75;;;3.49;69.31
65716;BME280;63484;52.054;8.518;2023-03-14T20:29:27;99872.69;;;3.34;70.19
65716;BME280;63484;52.054;8.518;2023-03-14T20:34:30;99873.94;;;3.26;71.11
65716;BME280;63484;52.054;8.518;2023-03-14T20:39:33;99874.75;;;3.08;71.52
65716;BME280;63484;52.054;8.518;2023-03-14T20:44:35;99878.44;;;3.02;72.29
65716;BME280;63484;52.054;8.518;2023-03-14T20:49:38;99897.59;;;3.00;71.75
65716;BME280;63484;52.054;8.518;2023-03-14T20:54:39;99894.16;;;2.99;71.56
65716;BME280;63484;52.054;8.518;2023-03-14T20:59:41;99909.91;;;2.95;72.14
65716;BME280;63484;52.054;8.518;2023-03-14T21:04:44;99912.06;;;2.85;73.68
65716;BME280;63484;52.054;8.518;2023-03-14T21:09:45;99911.19;;;2.84;73.06
65716;BME280;63484;52.054;8.518;2023-03-14T21:14:47;99914.06;;;2.99;72.65
65716;BME280;63484;52.054;8.518;2023-03-14T21:19:49;99923.09;;;3.10;71.91
65716;BME280;63484;52.054;8.518;2023-03-14T21:24:57;99915.09;;;3.15;71.49
65716;BME280;63484;52.054;8.518;2023-03-14T21:29:58;99929.31;;;3.26;72.25
65716;BME280;63484;52.054;8.518;2023-03-14T21:35:01;99928.91;;;3.15;71.72
65716;BME280;63484;52.054;8.518;2023-03-14T21:40:03;99938.13;;;3.02;72.13
65716;BME280;63484;52.054;8.518;2023-03-14T21:45:08;99934.38;;;2.89;73.25
65716;BME280;63484;52.054;8.518;2023-03-14T21:50:13;99936.63;;;2.76;73.24
65716;BME280;63484;52.054;8.518;2023-03-14T21:55:15;99936.03;;;2.70;74.24
65716;BME280;63484;52.054;8.518;2023-03-14T22:00:19;99930.66;;;2.53;75.27
65716;BME280;63484;52.054;8.518;2023-03-14T22:05:22;99947.41;;;2.46;75.50
65716;BME280;63484;52.054;8.518;2023-03-14T22:10:23;99939.13;;;2.36;75.68
65716;BME280;63484;52.054;8.518;2023-03-14T22:15:25;99956.81;;;2.27;76.61
65716;BME280;63484;52.054;8.518;2023-03-14T22:20:27;99956.44;;;2.36;77.70
65716;BME280;63484;52.054;8.518;2023-03-14T22:25:29;99949.84;;;2.27;76.87
65716;BME280;63484;52.054;8.518;2023-03-14T22:30:30;99950.09;;;2.21;77.62
65716;BME280;63484;52.054;8.518;2023-03-14T22:35:33;99957.44;;;2.32;77.27
65716;BME280;63484;52.054;8.518;2023-03-14T22:40:36;99967.81;;;2.32;76.95
65716;BME280;63484;52.054;8.518;2023-03-14T22:45:40;99973.97;;;2.29;76.80
65716;BME280;63484;52.054;8.518;2023-03-14T22:50:42;99968.97;;;2.25;76.76
65716;BME280;63484;52.054;8.518;2023-03-14T22:55:44;99972.50;;;2.22;77.03
65716;BME280;63484;52.054;8.518;2023-03-14T23:00:45;99972.34;;;2.27;77.20
65716;BME280;63484;52.054;8.518;2023-03-14T23:05:48;99974.88;;;2.28;76.65
65716;BME280;63484;52.054;8.518;2023-03-14T23:10:49;99977.34;;;2.31;76.60
65716;BME280;63484;52.054;8.518;2023-03-14T23:15:52;99970.78;;;2.44;76.22
65716;BME280;63484;52.054;8.518;2023-03-14T23:21:05;99979.47;;;2.43;75.23
65716;BME280;63484;52.054;8.518;2023-03-14T23:26:09;99980.06;;;2.28;76.58
65716;BME280;63484;52.054;8.518;2023-03-14T23:31:10;99988.47;;;2.56;75.15
65716;BME280;63484;52.054;8.518;2023-03-14T23:36:15;99987.19;;;2.45;75.29
65716;BME280;63484;52.054;8.518;2023-03-14T23:41:18;99993.03;;;2.50;75.38
65716;BME280;63484;52.054;8.518;2023-03-14T23:46:19;99997.41;;;2.49;75.27
65716;BME280;63484;52.054;8.518;2023-03-14T23:51:23;100004.84;;;2.35;75.29
65716;BME280;63484;52.054;8.518;2023-03-14T23:56:24;100008.91;;;2.42;74.46
